Decoded Metar for YPJT (PERTH in AUSTRALIA) (IATA:JAD) | Meteo·Mobile Aviation Weather
aviador You're here:

YPJT Decoded Metar

PERTH in AUSTRALIA
Report Time2018-10-20 08:00:00
UTC Time2018-10-20 08:35:55
Flight Rules vfr VFR
Wind290° at 13 kt
W.Decomp.*RWY 30: 12.8 kt HW 2 kt LCW
RWY 24: 8.2 kt HW 10.1 kt RCW
W.Rank290° ranks 30
Current wind is above 290° avg. (10.3)
Visibility9999 m
Phenomena:N/A
Clouds:Scattered 032 Hf
Overcast 047 Hf
Expected CloudBase > 3,200 ft AGL from Temp-Dew spread
Ceiling4,700 ft
Temp19°C (ISA +4)
Dew Point11°C (60% RH)
AAT14.7°C
QNH1017 hPa
Density Alt633 ft
Elevation98 ft
Report Wrong Elevation
Raw Report
METAR YPJT 200800Z AUTO 29013KT 9999 // SCT032 OVC047 19/11 Q1017=

Extra information for YPJT:More info

Metar Taf Metar & Taf Last 4 Metars F.Rules Stats Wind Profile Meteogram Temp Stats Airport Information Weather charts Add Link Nearby VenuesMetar ALERT Operation Metar Decoded Social comments